Time;durP1;ratioP1;P1;durP2;ratioP2;P2;SDS_P1;SDS_P2;PMS_P1;PMS_P2;Temp;Humidity;BMP_temperature;BMP_pressure;BME280_temperature;BME280_humidity;BME280_pressure;Samples;Min_cycle;Max_cycle;Signal;HPM_P1;HPM_P2
2022/08/24 00:01:26;;;;;;;0.50;0.50;;;17.70;99.90;;;;;;5114135;28;20222;-69
2022/08/24 00:04:14;;;;;;;0.40;0.40;;;17.70;99.90;;;;;;5114976;28;20241;-68
2022/08/24 00:07:06;;;;;;;0.50;0.50;;;17.60;99.90;;;;;;5115066;28;20195;-69
2022/08/24 00:10:13;;;;;;;0.40;0.40;;;17.60;99.90;;;;;;5114287;28;20579;-67
2022/08/24 00:13:01;;;;;;;0.50;0.50;;;17.60;99.90;;;;;;5114206;28;20229;-70
2022/08/24 00:15:49;;;;;;;0.40;0.40;;;17.60;99.90;;;;;;5114179;28;20202;-69
2022/08/24 00:18:38;;;;;;;0.40;0.40;;;17.60;99.90;;;;;;5114033;28;20199;-70
2022/08/24 00:21:26;;;;;;;0.40;0.40;;;17.50;99.90;;;;;;5113851;28;20215;-67
2022/08/24 00:24:15;;;;;;;0.40;0.40;;;17.50;99.90;;;;;;5113973;28;20202;-69
2022/08/24 00:27:05;;;;;;;0.40;0.40;;;17.50;99.90;;;;;;5114057;28;20200;-69
2022/08/24 00:29:54;;;;;;;0.40;0.40;;;17.40;99.90;;;;;;5112869;28;20203;-67
2022/08/24 00:32:42;;;;;;;0.40;0.40;;;17.40;99.90;;;;;;5113770;28;20302;-70
2022/08/24 00:35:31;;;;;;;0.50;0.50;;;17.40;99.90;;;;;;5113820;28;20199;-65
2022/08/24 00:38:19;;;;;;;0.40;0.40;;;17.40;99.90;;;;;;5114976;28;20265;-68
2022/08/24 00:41:08;;;;;;;0.40;0.40;;;17.30;99.90;;;;;;5113895;28;20269;-68
2022/08/24 00:43:58;;;;;;;0.40;0.40;;;17.30;99.90;;;;;;5114596;28;20191;-68
2022/08/24 00:46:51;;;;;;;0.40;0.40;;;17.20;99.90;;;;;;5113683;28;20620;-66
2022/08/24 00:49:45;;;;;;;0.50;0.50;;;17.20;99.90;;;;;;5113702;28;20200;-67
2022/08/24 00:52:38;;;;;;;0.40;0.40;;;17.20;99.90;;;;;;5113316;28;20343;-67
2022/08/24 00:55:30;;;;;;;0.50;0.50;;;17.20;99.90;;;;;;5112820;28;20195;-69
2022/08/24 00:58:24;;;;;;;0.40;0.40;;;17.20;99.90;;;;;;5113302;28;20199;-71
2022/08/24 01:01:13;;;;;;;0.40;0.40;;;17.10;99.90;;;;;;5113562;28;20442;-67
2022/08/24 01:04:04;;;;;;;0.40;0.40;;;17.10;99.90;;;;;;5112830;28;20206;-67
2022/08/24 01:06:52;;;;;;;0.50;0.50;;;17.10;99.90;;;;;;5113278;28;20623;-66
2022/08/24 01:09:40;;;;;;;0.40;0.40;;;17.00;99.90;;;;;;5113331;28;20677;-67
2022/08/24 01:12:31;;;;;;;0.40;0.40;;;17.00;99.90;;;;;;5112699;28;20273;-67
2022/08/24 01:15:21;;;;;;;0.40;0.40;;;17.00;99.90;;;;;;5113500;28;20195;-68
2022/08/24 01:21:25;;;;;;;0.50;0.50;;;16.90;99.90;;;;;;5112388;28;20215;-69
2022/08/24 01:24:14;;;;;;;0.50;0.50;;;17.10;99.90;;;;;;5113467;28;20749;-67
2022/08/24 01:27:04;;;;;;;0.50;0.50;;;16.80;99.90;;;;;;5112156;28;20203;-68
2022/08/24 01:29:55;;;;;;;0.40;0.40;;;16.90;99.90;;;;;;5111922;28;20207;-66
2022/08/24 01:32:52;;;;;;;0.40;0.40;;;16.90;99.90;;;;;;5112735;28;20223;-69
2022/08/24 01:35:41;;;;;;;0.50;0.50;;;16.70;99.90;;;;;;5113752;28;20329;-68
2022/08/24 01:38:29;;;;;;;0.45;0.45;;;16.80;99.90;;;;;;5112825;28;20277;-70
2022/08/24 01:41:18;;;;;;;0.40;0.40;;;16.60;99.90;;;;;;5118877;27;20219;-67
2022/08/24 01:44:08;;;;;;;0.40;0.40;;;16.70;99.90;;;;;;5112910;28;20195;-68
2022/08/24 01:46:57;;;;;;;0.40;0.40;;;16.70;99.90;;;;;;5113638;28;20199;-70
2022/08/24 01:49:47;;;;;;;0.40;0.40;;;16.60;99.90;;;;;;5112099;28;20200;-68
2022/08/24 01:52:37;;;;;;;0.45;0.45;;;16.60;99.90;;;;;;5112108;28;20219;-65
2022/08/24 01:55:45;;;;;;;0.40;0.40;;;16.60;99.90;;;;;;5112606;28;20195;-70
2022/08/24 01:58:34;;;;;;;0.50;0.50;;;16.60;99.90;;;;;;5113426;28;20249;-67
2022/08/24 02:01:23;;;;;;;0.40;0.40;;;16.50;99.90;;;;;;5113363;28;20269;-68
2022/08/24 02:04:12;;;;;;;0.40;0.40;;;16.50;99.90;;;;;;5112977;28;20329;-67
2022/08/24 02:07:07;;;;;;;0.43;0.43;;;16.50;99.90;;;;;;5112224;28;20199;-67
2022/08/24 02:09:55;;;;;;;0.40;0.40;;;16.40;99.90;;;;;;5112390;28;20199;-65
2022/08/24 02:12:56;;;;;;;0.40;0.40;;;16.30;99.90;;;;;;5113286;28;20588;-65
2022/08/24 02:15:46;;;;;;;0.40;0.40;;;16.30;99.90;;;;;;5112587;28;20577;-70
2022/08/24 02:18:35;;;;;;;0.50;0.50;;;16.30;99.90;;;;;;5112889;28;20199;-66
2022/08/24 02:21:24;;;;;;;0.40;0.40;;;16.20;99.90;;;;;;5112429;28;20219;-65
2022/08/24 02:24:12;;;;;;;0.40;0.40;;;16.20;99.90;;;;;;5112823;28;20207;-67
2022/08/24 02:27:01;;;;;;;0.50;0.50;;;16.20;99.90;;;;;;5113116;28;20203;-65
2022/08/24 02:29:49;;;;;;;0.47;0.47;;;16.20;99.90;;;;;;5112311;28;20199;-68
2022/08/24 02:32:38;;;;;;;0.40;0.40;;;16.10;99.90;;;;;;5136152;22;20300;-69
2022/08/24 02:35:28;;;;;;;0.40;0.40;;;16.10;99.90;;;;;;5111715;28;20196;-69
2022/08/24 02:38:16;;;;;;;0.40;0.40;;;16.20;99.90;;;;;;5111574;28;20571;-69
2022/08/24 02:41:04;;;;;;;0.40;0.40;;;16.20;99.90;;;;;;5111252;28;20203;-69
2022/08/24 02:43:53;;;;;;;0.40;0.40;;;16.10;99.90;;;;;;5092081;28;20199;-69
2022/08/24 02:46:41;;;;;;;0.40;0.40;;;16.10;99.90;;;;;;5091366;28;20204;-70
2022/08/24 02:49:31;;;;;;;0.40;0.40;;;16.10;99.90;;;;;;5091948;28;20253;-70
2022/08/24 02:52:19;;;;;;;0.40;0.40;;;16.10;99.90;;;;;;5091975;28;20231;-70
2022/08/24 02:55:09;;;;;;;0.40;0.40;;;16.10;99.90;;;;;;5093727;28;20211;-70
2022/08/24 02:57:57;;;;;;;0.40;0.40;;;16.10;99.90;;;;;;5094865;28;20196;-70
2022/08/24 03:00:47;;;;;;;0.40;0.40;;;16.00;99.90;;;;;;5091734;28;20612;-70
2022/08/24 03:03:35;;;;;;;0.40;0.40;;;16.00;99.90;;;;;;5091590;28;20273;-70
2022/08/24 03:06:24;;;;;;;0.40;0.40;;;16.00;99.90;;;;;;5091851;28;20199;-70
2022/08/24 03:09:13;;;;;;;0.40;0.40;;;16.00;99.90;;;;;;5092495;28;20199;-70
2022/08/24 03:12:01;;;;;;;0.40;0.40;;;16.00;99.90;;;;;;5105058;28;20219;-70
2022/08/24 03:14:50;;;;;;;0.40;0.40;;;16.00;99.90;;;;;;5104898;28;20195;-70
2022/08/24 03:17:39;;;;;;;0.40;0.40;;;16.00;99.90;;;;;;5104295;28;20196;-70
2022/08/24 03:20:30;;;;;;;0.40;0.40;;;16.10;99.90;;;;;;5104692;28;20209;-70
2022/08/24 03:23:19;;;;;;;0.40;0.40;;;16.20;99.90;;;;;;5102764;28;20216;-70
2022/08/24 03:26:07;;;;;;;0.40;0.40;;;16.40;99.90;;;;;;5106399;28;20270;-70
2022/08/24 03:28:56;;;;;;;0.40;0.40;;;16.60;99.90;;;;;;5105958;28;20199;-70
2022/08/24 03:31:46;;;;;;;0.40;0.40;;;16.80;99.90;;;;;;5105770;28;20228;-70
2022/08/24 03:34:34;;;;;;;0.40;0.40;;;16.90;99.90;;;;;;5106104;28;20200;-72
2022/08/24 03:37:22;;;;;;;0.40;0.40;;;17.10;99.90;;;;;;5108388;28;20200;-70
2022/08/24 03:40:12;;;;;;;0.40;0.40;;;17.20;99.90;;;;;;5106725;28;20229;-70
2022/08/24 03:43:44;;;;;;;0.40;0.40;;;17.30;99.90;;;;;;5113562;28;20355;-70
2022/08/24 03:46:21;;;;;;;0.40;0.40;;;17.40;99.90;;;;;;5108809;28;20230;-70
2022/08/24 03:49:13;;;;;;;0.40;0.40;;;17.50;99.90;;;;;;5108456;28;20232;-70
2022/08/24 03:52:01;;;;;;;0.40;0.40;;;17.60;99.90;;;;;;5112739;28;20272;-70
2022/08/24 03:54:49;;;;;;;0.40;0.40;;;17.60;99.90;;;;;;5114656;28;20559;-70
2022/08/24 03:57:39;;;;;;;0.40;0.40;;;17.60;99.90;;;;;;5116582;28;20322;-70
2022/08/24 04:00:27;;;;;;;0.40;0.40;;;17.70;99.90;;;;;;5114024;28;20200;-70
2022/08/24 04:03:15;;;;;;;0.40;0.40;;;17.70;99.90;;;;;;5117663;28;20613;-69
2022/08/24 04:06:04;;;;;;;0.40;0.40;;;17.80;99.90;;;;;;5113523;28;20208;-70
2022/08/24 04:08:52;;;;;;;0.40;0.40;;;17.80;99.90;;;;;;5116299;28;20251;-69
2022/08/24 04:11:42;;;;;;;0.40;0.40;;;17.80;99.90;;;;;;5116037;28;20216;-69
2022/08/24 04:14:31;;;;;;;0.40;0.40;;;17.90;99.90;;;;;;5116300;28;20195;-70
2022/08/24 04:17:19;;;;;;;0.40;0.40;;;18.00;99.90;;;;;;5111794;28;20204;-70
2022/08/24 04:20:09;;;;;;;0.40;0.40;;;18.00;99.90;;;;;;5103980;28;20211;-70
2022/08/24 04:22:57;;;;;;;0.40;0.40;;;18.00;99.90;;;;;;5106401;28;20224;-70
2022/08/24 04:25:47;;;;;;;0.40;0.40;;;18.10;99.90;;;;;;5110274;28;20256;-70
2022/08/24 04:28:35;;;;;;;0.40;0.40;;;18.00;99.90;;;;;;5106806;28;20204;-70
2022/08/24 04:31:26;;;;;;;0.40;0.40;;;18.00;99.90;;;;;;5095632;28;20200;-70
2022/08/24 04:34:17;;;;;;;0.40;0.40;;;18.00;99.90;;;;;;5095010;28;20721;-69
2022/08/24 04:37:05;;;;;;;0.40;0.40;;;18.10;99.90;;;;;;5095530;28;20329;-69
2022/08/24 04:39:58;;;;;;;0.40;0.40;;;18.10;99.90;;;;;;5094968;28;20306;-70
2022/08/24 04:42:46;;;;;;;0.40;0.40;;;18.20;99.90;;;;;;5095182;28;20219;-71
2022/08/24 04:45:38;;;;;;;0.40;0.40;;;18.20;99.90;;;;;;5094942;28;20196;-70
2022/08/24 04:48:28;;;;;;;0.40;0.40;;;18.20;99.90;;;;;;5094610;28;20192;-69
2022/08/24 04:51:18;;;;;;;0.40;0.40;;;18.30;99.90;;;;;;5095151;28;20208;-70
2022/08/24 04:54:07;;;;;;;0.40;0.40;;;18.30;99.90;;;;;;5093663;28;20215;-70
2022/08/24 04:56:55;;;;;;;0.40;0.40;;;18.30;99.90;;;;;;5094536;28;20435;-70
2022/08/24 04:59:43;;;;;;;0.40;0.40;;;18.40;99.90;;;;;;5094290;28;20207;-70
2022/08/24 05:02:31;;;;;;;0.40;0.40;;;18.40;99.90;;;;;;5093877;28;20230;-70
2022/08/24 05:05:27;;;;;;;2.70;2.60;;;18.30;99.90;;;;;;5094861;28;20205;-70
2022/08/24 05:08:16;;;;;;;0.40;0.40;;;18.40;99.90;;;;;;5094064;28;20196;-70
2022/08/24 05:11:07;;;;;;;0.40;0.40;;;18.40;99.90;;;;;;5094101;28;20204;-70
2022/08/24 05:13:56;;;;;;;0.40;0.40;;;18.50;99.90;;;;;;5094398;28;20312;-70
2022/08/24 05:16:45;;;;;;;0.40;0.40;;;18.50;99.90;;;;;;5093895;28;20200;-70
2022/08/24 05:19:40;;;;;;;0.40;0.40;;;18.60;99.90;;;;;;5093534;28;20200;-70
2022/08/24 05:22:30;;;;;;;0.40;0.40;;;18.70;99.90;;;;;;5094089;28;20612;-70
2022/08/24 05:25:19;;;;;;;0.40;0.40;;;18.70;99.90;;;;;;5094141;28;20660;-70
2022/08/24 05:28:08;;;;;;;0.40;0.40;;;18.80;99.90;;;;;;5094117;28;20672;-70
2022/08/24 05:30:56;;;;;;;0.40;0.40;;;18.90;99.90;;;;;;5093632;28;20192;-70
2022/08/24 05:33:45;;;;;;;0.40;0.40;;;18.90;99.90;;;;;;5094755;28;20262;-70
2022/08/24 05:36:37;;;;;;;0.40;0.40;;;19.00;99.90;;;;;;5094375;28;20207;-70
2022/08/24 05:39:27;;;;;;;0.40;0.40;;;19.00;99.90;;;;;;5087208;28;20201;-70
2022/08/24 05:42:15;;;;;;;0.40;0.40;;;19.10;99.90;;;;;;5081949;28;20236;-70
2022/08/24 05:45:03;;;;;;;0.40;0.40;;;19.20;99.90;;;;;;5078825;28;20207;-70
2022/08/24 05:47:51;;;;;;;0.80;0.80;;;19.20;99.90;;;;;;5078483;28;20204;-71
2022/08/24 05:50:39;;;;;;;0.40;0.40;;;19.20;99.90;;;;;;5080976;28;20192;-70
2022/08/24 05:53:27;;;;;;;0.40;0.40;;;19.20;99.90;;;;;;5079310;28;20282;-70
2022/08/24 05:56:20;;;;;;;0.40;0.40;;;19.40;99.90;;;;;;5092202;28;20200;-70
2022/08/24 05:59:09;;;;;;;0.40;0.40;;;19.50;99.90;;;;;;5083650;28;20752;-70
2022/08/24 06:01:59;;;;;;;0.40;0.40;;;19.60;99.90;;;;;;5082801;28;20223;-70
2022/08/24 06:04:47;;;;;;;0.40;0.40;;;19.80;99.90;;;;;;5088372;28;20196;-70
2022/08/24 06:07:36;;;;;;;1.90;1.80;;;19.90;99.90;;;;;;5081693;28;20672;-71
2022/08/24 06:10:24;;;;;;;0.40;0.40;;;20.00;99.90;;;;;;5073796;28;20197;-70
2022/08/24 06:13:29;;;;;;;0.40;0.40;;;20.10;99.90;;;;;;5079595;28;20858;-71
2022/08/24 06:16:17;;;;;;;0.40;0.40;;;20.30;99.90;;;;;;5085758;28;20210;-70
2022/08/24 06:19:12;;;;;;;0.40;0.40;;;20.50;99.90;;;;;;5080945;28;20191;-70
2022/08/24 06:22:00;;;;;;;0.40;0.40;;;20.60;99.90;;;;;;5080602;28;20700;-71
2022/08/24 06:27:54;;;;;;;0.40;0.40;;;20.80;99.90;;;;;;5074119;28;20200;-70
2022/08/24 06:30:44;;;;;;;0.40;0.40;;;20.70;99.90;;;;;;5074268;28;20223;-71
2022/08/24 06:33:32;;;;;;;0.40;0.40;;;20.80;99.90;;;;;;5078623;28;20232;-70
2022/08/24 06:36:21;;;;;;;0.40;0.40;;;20.80;99.90;;;;;;5077230;28;20201;-70
2022/08/24 06:39:10;;;;;;;0.40;0.40;;;20.90;99.90;;;;;;5094734;28;20200;-70
2022/08/24 06:41:58;;;;;;;0.50;0.50;;;21.20;99.90;;;;;;5078900;28;20728;-71
2022/08/24 06:44:47;;;;;;;1.02;1.02;;;21.20;99.90;;;;;;5074270;28;20193;-70
2022/08/24 06:47:36;;;;;;;0.40;0.40;;;21.10;99.90;;;;;;5089077;28;20680;-71
2022/08/24 06:50:25;;;;;;;0.40;0.40;;;21.00;99.90;;;;;;5074939;28;20197;-71
2022/08/24 06:53:14;;;;;;;0.40;0.40;;;21.10;99.90;;;;;;5083594;28;20290;-70
2022/08/24 06:56:03;;;;;;;0.40;0.40;;;21.10;99.90;;;;;;5091898;28;20256;-71
2022/08/24 06:58:51;;;;;;;0.40;0.40;;;20.90;99.90;;;;;;5083433;28;20204;-70
2022/08/24 07:01:39;;;;;;;0.40;0.40;;;20.70;99.90;;;;;;5081853;28;20219;-70
2022/08/24 07:04:29;;;;;;;0.40;0.40;;;20.40;99.90;;;;;;5081737;28;20200;-70
2022/08/24 07:07:17;;;;;;;0.40;0.40;;;20.20;99.90;;;;;;5096655;28;20229;-70
2022/08/24 07:10:07;;;;;;;0.75;0.75;;;20.20;99.90;;;;;;5102565;28;20204;-70
2022/08/24 07:12:56;;;;;;;0.52;0.52;;;20.20;99.90;;;;;;5101420;28;20220;-69
2022/08/24 07:15:44;;;;;;;0.50;0.50;;;20.10;99.90;;;;;;5095880;28;20218;-70
2022/08/24 07:18:33;;;;;;;0.40;0.40;;;20.00;99.90;;;;;;5106253;28;20215;-70
2022/08/24 07:21:23;;;;;;;0.40;0.40;;;19.90;99.90;;;;;;5104200;28;20659;-70
2022/08/24 07:24:11;;;;;;;0.40;0.40;;;19.90;99.90;;;;;;5105508;28;20226;-71
2022/08/24 07:26:59;;;;;;;0.40;0.40;;;19.90;99.90;;;;;;5098935;28;20226;-70
2022/08/24 07:29:47;;;;;;;2.05;0.75;;;19.80;99.90;;;;;;5082683;28;20200;-70
2022/08/24 07:32:56;;;;;;;1.35;0.75;;;19.60;99.90;;;;;;5086424;28;20291;-70
2022/08/24 07:35:44;;;;;;;0.60;0.60;;;19.60;99.90;;;;;;5099862;28;20220;-70
2022/08/24 07:38:34;;;;;;;2.50;1.48;;;19.60;99.90;;;;;;5095238;28;20199;-71
2022/08/24 07:41:24;;;;;;;0.68;0.68;;;19.80;99.90;;;;;;5092283;28;20249;-72
2022/08/24 07:44:32;;;;;;;0.40;0.40;;;19.80;99.90;;;;;;5084693;28;20198;-71
2022/08/24 07:47:20;;;;;;;0.40;0.40;;;19.80;99.90;;;;;;5092883;28;20276;-71
2022/08/24 07:50:26;;;;;;;0.40;0.40;;;20.10;99.90;;;;;;5087355;28;20208;-71
2022/08/24 07:53:14;;;;;;;0.40;0.40;;;20.00;99.90;;;;;;5090779;28;20277;-71
2022/08/24 07:56:10;;;;;;;0.95;0.68;;;20.10;99.90;;;;;;5089453;28;20212;-71
2022/08/24 07:58:58;;;;;;;0.50;0.50;;;20.30;99.90;;;;;;5081186;28;20208;-71
2022/08/24 08:01:46;;;;;;;0.68;0.65;;;20.50;99.90;;;;;;5084027;28;20212;-71
2022/08/24 08:04:35;;;;;;;3.35;1.48;;;20.40;99.90;;;;;;5088372;28;20204;-71
2022/08/24 08:07:23;;;;;;;0.70;0.70;;;20.40;99.90;;;;;;5086419;28;20192;-71
2022/08/24 08:10:12;;;;;;;0.50;0.50;;;20.40;99.90;;;;;;5074834;28;20196;-71
2022/08/24 08:13:02;;;;;;;0.40;0.40;;;20.50;99.90;;;;;;5084319;28;20231;-71
2022/08/24 08:15:51;;;;;;;0.52;0.52;;;20.50;99.90;;;;;;5077115;28;20599;-71
2022/08/24 08:18:42;;;;;;;1.60;1.58;;;20.60;99.90;;;;;;5082933;28;20240;-71
2022/08/24 08:24:37;;;;;;;0.88;0.88;;;21.40;99.90;;;;;;5095914;28;20241;-71
2022/08/24 08:27:26;;;;;;;0.40;0.40;;;21.50;99.90;;;;;;5091221;28;20208;-71
2022/08/24 08:30:15;;;;;;;0.60;0.60;;;21.80;99.90;;;;;;5089041;28;20197;-71
2022/08/24 08:33:03;;;;;;;0.40;0.40;;;21.70;99.90;;;;;;5084802;28;20235;-71
2022/08/24 08:35:56;;;;;;;0.40;0.40;;;21.80;99.90;;;;;;5116922;22;20235;-65
2022/08/24 08:38:44;;;;;;;0.77;0.77;;;21.90;99.90;;;;;;5095172;28;20204;-66
2022/08/24 08:41:57;;;;;;;0.98;0.95;;;21.80;99.90;;;;;;5114978;28;20687;-65
2022/08/24 08:44:58;;;;;;;0.50;0.50;;;22.00;99.90;;;;;;5095119;28;20265;-66
2022/08/24 08:48:38;;;;;;;0.75;0.70;;;22.00;99.90;;;;;;5083122;28;20196;-66
2022/08/24 08:51:55;;;;;;;0.40;0.40;;;22.30;99.90;;;;;;5084008;28;20223;-66
2022/08/24 08:54:55;;;;;;;0.50;0.50;;;22.60;99.90;;;;;;5083902;28;20669;-67
2022/08/24 08:57:55;;;;;;;0.40;0.40;;;23.10;99.90;;;;;;5084690;28;20192;-67
2022/08/24 09:00:55;;;;;;;0.40;0.40;;;23.40;99.90;;;;;;5082812;28;20572;-65
2022/08/24 09:04:13;;;;;;;0.40;0.40;;;23.70;99.90;;;;;;5083403;28;20578;-64
2022/08/24 09:07:20;;;;;;;0.40;0.40;;;23.70;99.90;;;;;;5091754;28;20204;-65
2022/08/24 09:10:35;;;;;;;0.60;0.60;;;23.80;99.90;;;;;;5077406;28;20200;-65
2022/08/24 09:13:42;;;;;;;1.60;1.52;;;24.00;99.90;;;;;;5083439;28;20216;-66
2022/08/24 09:16:48;;;;;;;0.40;0.40;;;24.00;99.90;;;;;;5083201;28;20251;-66
2022/08/24 09:19:52;;;;;;;0.40;0.40;;;24.00;99.90;;;;;;5083200;28;20201;-65
2022/08/24 09:22:46;;;;;;;0.40;0.40;;;23.70;99.90;;;;;;5073716;28;20691;-66
2022/08/24 09:25:43;;;;;;;0.40;0.40;;;23.50;99.90;;;;;;5072333;28;20220;-65
2022/08/24 09:28:41;;;;;;;0.88;0.88;;;23.60;99.90;;;;;;5072349;28;20196;-67
2022/08/24 09:31:50;;;;;;;1.40;1.40;;;23.60;99.90;;;;;;5073678;28;20200;-66
2022/08/24 09:34:53;;;;;;;0.40;0.40;;;23.90;99.90;;;;;;5072861;28;20239;-65
2022/08/24 09:37:57;;;;;;;0.63;0.63;;;24.40;99.90;;;;;;5082660;28;20575;-66
2022/08/24 09:41:11;;;;;;;0.40;0.40;;;24.70;99.90;;;;;;5074072;28;20207;-64
2022/08/24 09:44:25;;;;;;;0.50;0.50;;;25.10;99.90;;;;;;5089313;28;20200;-67
2022/08/24 09:47:42;;;;;;;0.40;0.40;;;25.50;99.90;;;;;;5088451;28;20188;-68
2022/08/24 09:51:01;;;;;;;1.45;0.63;;;25.80;99.90;;;;;;5073385;28;20207;-66
2022/08/24 09:54:32;;;;;;;0.40;0.40;;;25.90;99.90;;;;;;5083196;28;20219;-67
2022/08/24 09:57:30;;;;;;;0.40;0.40;;;26.20;99.90;;;;;;5074030;28;20574;-68
2022/08/24 10:00:44;;;;;;;0.40;0.40;;;26.20;99.90;;;;;;5071789;28;20218;-67
2022/08/24 10:03:51;;;;;;;0.40;0.40;;;26.60;99.90;;;;;;5079640;28;20579;-67
2022/08/24 10:06:51;;;;;;;0.40;0.40;;;26.70;99.90;;;;;;5071557;28;20193;-67
2022/08/24 10:09:59;;;;;;;0.85;0.85;;;26.70;99.90;;;;;;5072678;28;20677;-68
2022/08/24 10:12:58;;;;;;;0.40;0.40;;;26.60;99.90;;;;;;5072367;28;20201;-67
2022/08/24 10:15:58;;;;;;;0.40;0.40;;;26.30;99.90;;;;;;5071772;28;20212;-67
2022/08/24 10:18:59;;;;;;;0.40;0.40;;;26.10;99.90;;;;;;5071679;28;20200;-67
2022/08/24 10:21:56;;;;;;;0.88;0.88;;;26.50;99.90;;;;;;5071272;28;20250;-66
2022/08/24 10:25:19;;;;;;;0.65;0.65;;;26.80;99.90;;;;;;5072675;28;20216;-67
2022/08/24 10:28:31;;;;;;;0.50;0.50;;;26.80;99.90;;;;;;5071768;28;20204;-66
2022/08/24 10:31:26;;;;;;;0.40;0.40;;;26.80;99.90;;;;;;5070774;28;20231;-67
2022/08/24 10:34:31;;;;;;;0.40;0.40;;;26.90;99.90;;;;;;5072507;28;20707;-67
2022/08/24 10:37:45;;;;;;;0.50;0.50;;;26.80;99.90;;;;;;5071656;28;20719;-67
2022/08/24 10:40:43;;;;;;;0.40;0.40;;;27.00;99.90;;;;;;5072283;28;20232;-67
2022/08/24 10:44:12;;;;;;;0.40;0.40;;;27.00;99.90;;;;;;5077236;28;20204;-64
2022/08/24 10:47:05;;;;;;;0.50;0.50;;;27.10;99.90;;;;;;5091813;28;20199;-64
2022/08/24 10:50:20;;;;;;;1.92;0.75;;;27.40;99.90;;;;;;5090549;28;20675;-64
2022/08/24 10:53:22;;;;;;;0.40;0.40;;;27.80;99.90;;;;;;5092398;28;20208;-64
2022/08/24 10:56:14;;;;;;;0.52;0.52;;;27.60;99.90;;;;;;5091283;28;20598;-64
2022/08/24 10:59:14;;;;;;;1.33;0.80;;;27.00;99.90;;;;;;5090304;28;20195;-65
2022/08/24 11:02:06;;;;;;;0.40;0.40;;;26.50;99.90;;;;;;5090326;28;20721;-67
2022/08/24 11:05:01;;;;;;;0.40;0.40;;;26.00;99.90;;;;;;5091455;28;20602;-67
2022/08/24 11:07:57;;;;;;;0.40;0.40;;;25.70;99.90;;;;;;5091097;28;20211;-68
2022/08/24 11:10:45;;;;;;;0.40;0.40;;;25.90;99.90;;;;;;5090209;28;20781;-67
2022/08/24 11:13:36;;;;;;;0.75;0.75;;;26.20;99.90;;;;;;5082059;28;20200;-65
2022/08/24 11:16:29;;;;;;;0.40;0.40;;;26.80;99.90;;;;;;5079828;28;20262;-65
2022/08/24 11:19:31;;;;;;;0.47;0.47;;;27.30;99.90;;;;;;5073867;28;20199;-65
2022/08/24 11:22:29;;;;;;;0.50;0.50;;;27.60;99.90;;;;;;5080321;28;20680;-64
2022/08/24 11:25:24;;;;;;;0.40;0.40;;;27.50;99.90;;;;;;5077406;28;20216;-65
2022/08/24 11:28:20;;;;;;;0.40;0.40;;;27.30;99.90;;;;;;5070354;28;20197;-65
2022/08/24 11:31:12;;;;;;;5.30;4.43;;;27.10;99.90;;;;;;5081647;28;20199;-65
2022/08/24 11:34:04;;;;;;;0.73;0.73;;;26.90;99.90;;;;;;5092202;28;20282;-67
2022/08/24 11:36:52;;;;;;;0.40;0.40;;;26.70;99.90;;;;;;5071579;28;20270;-67
2022/08/24 11:39:40;;;;;;;0.50;0.50;;;26.40;99.90;;;;;;5074340;28;20201;-67
2022/08/24 11:42:42;;;;;;;0.40;0.40;;;26.20;99.90;;;;;;5071356;28;20215;-66
2022/08/24 11:45:36;;;;;;;0.50;0.50;;;26.30;99.90;;;;;;5080968;28;20763;-66
2022/08/24 11:48:35;;;;;;;0.40;0.40;;;26.40;99.90;;;;;;5094748;28;20211;-65
2022/08/24 11:51:33;;;;;;;0.40;0.40;;;26.40;99.90;;;;;;5078360;28;20199;-66
2022/08/24 11:54:29;;;;;;;0.40;0.40;;;26.40;99.90;;;;;;5074977;28;20225;-66
2022/08/24 11:57:25;;;;;;;0.40;0.40;;;26.40;99.90;;;;;;5078107;28;20213;-66
2022/08/24 12:00:17;;;;;;;0.57;0.57;;;26.40;99.90;;;;;;5080539;28;20274;-66
2022/08/24 12:03:17;;;;;;;0.40;0.40;;;26.40;99.90;;;;;;5084826;28;20219;-66
2022/08/24 12:06:26;;;;;;;0.50;0.50;;;26.40;99.90;;;;;;5094507;28;20588;-66
2022/08/24 12:09:32;;;;;;;0.40;0.40;;;26.50;99.90;;;;;;5084074;28;20215;-65
2022/08/24 12:12:27;;;;;;;0.40;0.40;;;26.40;99.90;;;;;;5094162;28;20196;-65
2022/08/24 12:15:20;;;;;;;0.40;0.40;;;26.50;99.90;;;;;;5083980;28;20680;-64
2022/08/24 12:18:22;;;;;;;0.40;0.40;;;26.60;99.90;;;;;;5083882;28;20221;-64
2022/08/24 12:21:17;;;;;;;0.40;0.40;;;26.60;99.90;;;;;;5083755;28;20546;-64
2022/08/24 12:24:11;;;;;;;0.40;0.40;;;26.60;99.90;;;;;;5085504;28;20200;-64
2022/08/24 12:27:04;;;;;;;0.40;0.40;;;26.60;99.90;;;;;;5085515;28;20193;-63
2022/08/24 12:29:59;;;;;;;0.40;0.40;;;26.70;99.90;;;;;;5083975;28;20691;-64
2022/08/24 12:32:52;;;;;;;0.40;0.40;;;26.60;99.90;;;;;;5082674;28;20189;-64
2022/08/24 12:35:45;;;;;;;0.40;0.40;;;26.70;99.90;;;;;;5084803;28;20333;-64
2022/08/24 12:38:40;;;;;;;0.40;0.40;;;26.80;99.90;;;;;;5073443;28;20228;-64
2022/08/24 12:41:33;;;;;;;0.40;0.40;;;26.90;99.90;;;;;;5080262;28;20200;-64
2022/08/24 12:44:28;;;;;;;0.40;0.40;;;27.00;99.90;;;;;;5082990;28;20231;-63
2022/08/24 12:47:24;;;;;;;0.50;0.50;;;27.10;99.90;;;;;;5075151;28;20193;-65
2022/08/24 12:50:19;;;;;;;0.40;0.40;;;27.50;99.90;;;;;;5073024;28;20266;-64
2022/08/24 12:53:26;;;;;;;0.40;0.40;;;28.10;99.90;;;;;;5089388;28;20647;-62
2022/08/24 12:56:45;;;;;;;0.40;0.40;;;28.80;99.90;;;;;;5090585;28;20239;-64
2022/08/24 12:59:39;;;;;;;0.40;0.40;;;29.80;99.90;;;;;;5092726;28;20200;-65
2022/08/24 13:02:35;;;;;;;1.02;1.02;;;31.10;99.90;;;;;;5092107;28;20211;-63
2022/08/24 13:05:25;;;;;;;0.60;0.60;;;32.20;99.90;;;;;;5091210;28;20298;-65
2022/08/24 13:08:19;;;;;;;0.40;0.40;;;33.90;99.90;;;;;;5082834;28;20239;-65
2022/08/24 13:11:11;;;;;;;0.40;0.40;;;35.60;96.80;;;;;;5080445;28;20203;-65
2022/08/24 13:14:18;;;;;;;0.40;0.40;;;37.10;91.60;;;;;;5081559;28;20193;-66
2022/08/24 13:17:13;;;;;;;0.60;0.60;;;38.90;84.80;;;;;;5082603;28;20298;-66
2022/08/24 13:20:19;;;;;;;0.40;0.40;;;40.30;75.20;;;;;;5081384;28;20246;-65
2022/08/24 13:23:14;;;;;;;0.40;0.40;;;41.60;67.50;;;;;;5072913;28;20246;-66
2022/08/24 13:26:25;;;;;;;0.40;0.40;;;42.90;62.10;;;;;;5072996;28;20246;-65
2022/08/24 13:29:16;;;;;;;0.50;0.50;;;43.50;57.00;;;;;;5072572;28;20317;-66
2022/08/24 13:32:06;;;;;;;0.63;0.63;;;43.90;55.60;;;;;;5085706;28;20626;-67
2022/08/24 13:34:56;;;;;;;0.50;0.50;;;43.20;56.00;;;;;;5081186;28;20223;-66
2022/08/24 13:38:24;;;;;;;0.40;0.40;;;43.40;55.40;;;;;;5082077;28;20220;-65
2022/08/24 13:41:20;;;;;;;0.40;0.40;;;43.90;53.70;;;;;;5082819;28;20213;-66
2022/08/24 13:44:17;;;;;;;0.70;0.70;;;44.40;51.40;;;;;;5090951;28;20204;-66
2022/08/24 13:47:12;;;;;;;2.47;1.60;;;44.80;50.50;;;;;;5072384;28;20550;-66
2022/08/24 13:50:08;;;;;;;0.50;0.50;;;44.70;50.90;;;;;;5072926;28;20572;-66
2022/08/24 13:53:06;;;;;;;0.50;0.50;;;44.70;49.80;;;;;;5090095;28;20207;-66
2022/08/24 13:56:11;;;;;;;0.50;0.50;;;45.30;49.40;;;;;;5081093;28;20242;-66
2022/08/24 13:59:05;;;;;;;0.50;0.50;;;45.70;48.90;;;;;;5077006;28;20236;-65
2022/08/24 14:02:07;;;;;;;0.50;0.50;;;45.70;48.60;;;;;;5076335;28;20195;-65
2022/08/24 14:05:02;;;;;;;0.50;0.50;;;44.90;48.50;;;;;;5072597;28;20274;-67
2022/08/24 14:08:03;;;;;;;0.50;0.50;;;44.00;49.00;;;;;;5086180;28;20197;-66
2022/08/24 14:11:00;;;;;;;0.50;0.50;;;43.70;50.20;;;;;;5088045;28;20202;-66
2022/08/24 14:14:04;;;;;;;0.50;0.50;;;43.80;48.80;;;;;;5091619;28;20203;-66
2022/08/24 14:20:24;;;;;;;0.50;0.50;;;43.90;49.30;;;;;;5088786;28;20211;-65
2022/08/24 14:23:26;;;;;;;0.50;0.50;;;42.80;50.10;;;;;;5092975;28;20668;-65
2022/08/24 14:26:57;;;;;;;0.40;0.40;;;42.30;50.40;;;;;;5092148;28;20231;-66
2022/08/24 14:29:47;;;;;;;0.50;0.50;;;42.10;51.10;;;;;;5081772;28;20193;-64
2022/08/24 14:32:43;;;;;;;0.52;0.52;;;41.60;52.10;;;;;;5082740;28;20191;-66
2022/08/24 14:35:36;;;;;;;0.50;0.50;;;40.40;52.90;;;;;;5081552;28;20298;-64
2022/08/24 14:38:49;;;;;;;0.50;0.50;;;39.90;53.50;;;;;;5070875;28;20208;-64
2022/08/24 14:41:48;;;;;;;0.50;0.50;;;38.50;56.00;;;;;;5071660;28;20204;-64
2022/08/24 14:44:56;;;;;;;0.50;0.50;;;37.30;58.20;;;;;;5070451;28;20296;-65
2022/08/24 14:47:59;;;;;;;0.40;0.40;;;37.00;59.10;;;;;;5070622;28;20193;-63
2022/08/24 14:50:58;;;;;;;0.50;0.50;;;37.20;58.70;;;;;;5070802;28;20196;-63
2022/08/24 14:53:56;;;;;;;0.50;0.50;;;38.00;58.20;;;;;;5078712;28;20680;-63
2022/08/24 14:56:57;;;;;;;0.40;0.40;;;38.10;57.00;;;;;;5081185;28;20196;-64
2022/08/24 14:59:57;;;;;;;0.60;0.60;;;38.50;57.70;;;;;;5071627;28;20205;-64
2022/08/24 15:03:10;;;;;;;0.47;0.47;;;39.60;56.20;;;;;;5071646;28;20235;-64
2022/08/24 15:06:10;;;;;;;0.40;0.40;;;41.40;53.50;;;;;;5070382;28;20224;-65
2022/08/24 15:09:21;;;;;;;0.40;0.40;;;42.20;52.70;;;;;;5070187;28;20201;-65
2022/08/24 15:12:15;;;;;;;0.40;0.40;;;42.80;51.60;;;;;;5070863;28;20258;-65
2022/08/24 15:15:11;;;;;;;0.50;0.50;;;42.90;51.30;;;;;;5071626;28;20232;-65
2022/08/24 15:18:05;;;;;;;1.38;1.27;;;43.00;51.00;;;;;;5081357;28;20212;-65
2022/08/24 15:21:06;;;;;;;0.50;0.50;;;43.40;50.50;;;;;;5080142;28;20215;-65
2022/08/24 15:24:04;;;;;;;0.40;0.40;;;43.60;50.10;;;;;;5084164;28;20730;-65